Time;durP1;ratioP1;P1;durP2;ratioP2;P2;SDS_P1;SDS_P2;PMS_P1;PMS_P2;Temp;Humidity;BMP_temperature;BMP_pressure;BME280_temperature;BME280_humidity;BME280_pressure;Samples;Min_cycle;Max_cycle;Signal;HPM_P1;HPM_P2
2023/01/26 00:00:04;;;;;;;;;63.25;48.75;;;;;-146.44;100.00;58906.56;5073552;27;45394;-57
2023/01/26 00:02:30;;;;;;;;;53.25;45.25;;;;;-146.44;100.00;58906.56;5069658;27;45511;-57
2023/01/26 00:04:55;;;;;;;;;56.50;41.50;;;;;-146.44;100.00;58906.56;5073591;27;45552;-56
2023/01/26 00:07:20;;;;;;;;;62.75;49.00;;;;;-146.44;100.00;58906.56;5073093;27;48134;-57
2023/01/26 00:09:45;;;;;;;;;61.75;49.00;;;;;-146.44;100.00;58906.56;5058868;27;45957;-57
2023/01/26 00:12:11;;;;;;;;;63.25;50.00;;;;;-146.44;100.00;58906.56;5071976;27;45500;-56
2023/01/26 00:14:48;;;;;;;;;63.50;50.50;;;;;-146.44;100.00;58906.56;5073019;27;45470;-57
2023/01/26 00:17:15;;;;;;;;;59.50;45.75;;;;;-146.44;100.00;58906.56;5073664;27;45625;-57
2023/01/26 00:19:40;;;;;;;;;59.25;48.00;;;;;-146.44;100.00;58906.56;5072640;27;45445;-55
2023/01/26 00:22:05;;;;;;;;;61.75;48.00;;;;;-146.44;100.00;58906.56;5073312;27;45532;-57
2023/01/26 00:24:30;;;;;;;;;62.25;48.50;;;;;-146.44;100.00;58906.56;5076488;27;45414;-56
2023/01/26 00:26:56;;;;;;;;;66.25;50.75;;;;;-146.44;100.00;58906.56;5076931;27;45578;-57
2023/01/26 00:29:21;;;;;;;;;67.50;50.50;;;;;-146.44;100.00;58906.56;5076808;27;51898;-57
2023/01/26 00:31:46;;;;;;;;;61.75;49.00;;;;;-146.44;100.00;58906.56;5076778;27;46576;-56
2023/01/26 00:34:12;;;;;;;;;63.25;50.50;;;;;-146.44;100.00;58906.56;5076874;27;45469;-57
2023/01/26 00:36:37;;;;;;;;;65.25;50.00;;;;;-146.44;100.00;58906.56;5075136;27;45668;-57
2023/01/26 00:39:03;;;;;;;;;59.50;48.25;;;;;-146.44;100.00;58906.56;5076701;27;46675;-57
2023/01/26 00:44:12;;;;;;;;;61.00;47.75;;;;;-146.44;100.00;58906.56;5076777;27;45527;-56
2023/01/26 00:46:37;;;;;;;;;64.00;50.50;;;;;-146.44;100.00;58906.56;5076562;27;45705;-57
2023/01/26 00:49:02;;;;;;;;;62.75;48.75;;;;;-146.44;100.00;58906.56;5075772;27;45928;-56
2023/01/26 00:51:28;;;;;;;;;60.00;47.00;;;;;-146.44;100.00;58906.56;5075643;27;45492;-57
2023/01/26 00:53:53;;;;;;;;;63.25;51.75;;;;;-146.44;100.00;58906.56;5076621;27;45494;-57
2023/01/26 00:56:18;;;;;;;;;63.00;50.00;;;;;-146.44;100.00;58906.56;5076158;27;45492;-57
2023/01/26 00:58:44;;;;;;;;;61.25;48.25;;;;;-146.44;100.00;58906.56;5076255;27;46067;-57
2023/01/26 01:01:10;;;;;;;;;59.50;46.25;;;;;-146.44;100.00;58906.56;5076326;27;45431;-56
2023/01/26 01:03:35;;;;;;;;;62.75;50.25;;;;;-146.44;100.00;58906.56;5076707;27;45583;-55
2023/01/26 01:06:00;;;;;;;;;64.00;51.50;;;;;-146.44;100.00;58906.56;5076130;27;45456;-55
2023/01/26 01:08:26;;;;;;;;;53.75;44.75;;;;;-146.44;100.00;58906.56;5072379;27;45953;-55
2023/01/26 01:11:02;;;;;;;;;62.50;50.75;;;;;-146.44;100.00;58906.56;5065568;28;45504;-57
2023/01/26 01:13:27;;;;;;;;;57.50;45.25;;;;;-146.44;100.00;58906.56;5075926;27;45484;-56
2023/01/26 01:15:52;;;;;;;;;56.50;47.50;;;;;-146.44;100.00;58906.56;5075916;27;48331;-57
2023/01/26 01:18:18;;;;;;;;;62.00;49.75;;;;;-146.44;100.00;58906.56;5075930;27;45532;-57
2023/01/26 01:20:43;;;;;;;;;57.25;45.75;;;;;-146.44;100.00;58906.56;5074920;27;45555;-57
2023/01/26 01:23:08;;;;;;;;;62.75;49.50;;;;;-146.44;100.00;58906.56;5075117;27;45530;-55
2023/01/26 01:25:34;;;;;;;;;64.00;48.75;;;;;-146.44;100.00;58906.56;5076077;27;45540;-55
2023/01/26 01:27:59;;;;;;;;;65.25;50.25;;;;;-146.44;100.00;58906.56;5075909;27;46026;-57
2023/01/26 01:30:24;;;;;;;;;62.00;48.75;;;;;-146.44;100.00;58906.56;5075802;27;50541;-57
2023/01/26 01:32:51;;;;;;;;;63.75;49.75;;;;;-146.44;100.00;58906.56;5075718;27;45402;-56
2023/01/26 01:35:16;;;;;;;;;61.25;48.00;;;;;-146.44;100.00;58906.56;5075427;27;45456;-55
2023/01/26 01:37:41;;;;;;;;;63.75;53.00;;;;;-146.44;100.00;58906.56;5075701;27;45470;-57
2023/01/26 01:40:11;;;;;;;;;60.25;45.25;;;;;-146.44;100.00;58906.56;5075631;27;45430;-57
2023/01/26 01:42:37;;;;;;;;;68.50;54.25;;;;;-146.44;100.00;58906.56;5075947;27;45559;-56
2023/01/26 01:45:41;;;;;;;;;63.00;47.75;;;;;-146.44;100.00;58906.56;5075585;27;45472;-56
2023/01/26 01:48:32;;;;;;;;;70.75;51.00;;;;;-146.44;100.00;58906.56;5075415;27;45449;-57
2023/01/26 01:51:04;;;;;;;;;64.25;51.25;;;;;-146.44;100.00;58906.56;5070495;27;45723;-56
2023/01/26 01:53:36;;;;;;;;;67.00;50.00;;;;;-146.44;100.00;58906.56;5075734;27;45554;-56
2023/01/26 01:56:06;;;;;;;;;61.25;49.75;;;;;-146.44;100.00;58906.56;5075711;27;45527;-57
2023/01/26 01:58:34;;;;;;;;;66.75;53.25;;;;;-146.44;100.00;58906.56;5073545;27;46891;-57
2023/01/26 02:00:59;;;;;;;;;66.75;53.25;;;;;-146.44;100.00;58906.56;5073385;27;45434;-57
2023/01/26 02:03:27;;;;;;;;;43.75;30.00;;;;;-146.44;100.00;58906.56;5075616;27;45428;-56
2023/01/26 02:06:17;;;;;;;;;67.50;53.00;;;;;-146.44;100.00;58906.56;5075211;27;45465;-57
2023/01/26 02:08:46;;;;;;;;;59.75;49.50;;;;;-146.44;100.00;58906.56;5068748;28;46085;-57
2023/01/26 02:11:24;;;;;;;;;66.75;51.25;;;;;-146.44;100.00;58906.56;5066938;27;45529;-57
2023/01/26 02:13:50;;;;;;;;;71.25;55.75;;;;;-146.44;100.00;58906.56;5074944;27;45464;-57
2023/01/26 02:16:18;;;;;;;;;74.00;54.00;;;;;-146.44;100.00;58906.56;5075279;27;45504;-56
2023/01/26 02:18:44;;;;;;;;;65.00;49.75;;;;;-146.44;100.00;58906.56;5075242;27;46224;-56
2023/01/26 02:21:16;;;;;;;;;66.25;50.00;;;;;-146.44;100.00;58906.56;5074280;27;45508;-54
2023/01/26 02:24:06;;;;;;;;;65.75;52.00;;;;;-146.44;100.00;58906.56;5075213;27;45574;-55
2023/01/26 02:26:34;;;;;;;;;65.50;54.50;;;;;-146.44;100.00;58906.56;5075236;27;45651;-57
2023/01/26 02:29:01;;;;;;;;;67.75;54.25;;;;;-146.44;100.00;58906.56;5073021;27;45552;-56
2023/01/26 02:31:27;;;;;;;;;61.00;50.00;;;;;-146.44;100.00;58906.56;5075120;27;45507;-57
2023/01/26 02:33:53;;;;;;;;;66.50;53.50;;;;;-146.44;100.00;58906.56;5074216;27;45590;-56
2023/01/26 02:36:28;;;;;;;;;62.50;52.50;;;;;-146.44;100.00;58906.56;5074755;27;45521;-57
2023/01/26 02:39:24;;;;;;;;;70.50;53.25;;;;;-146.44;100.00;58906.56;5074637;27;46519;-56
2023/01/26 02:44:38;;;;;;;;;68.25;55.00;;;;;-146.44;100.00;58906.56;5061289;27;45468;-54
2023/01/26 02:47:15;;;;;;;;;65.00;50.50;;;;;-146.44;100.00;58906.56;5073979;27;45650;-56
2023/01/26 02:49:46;;;;;;;;;68.00;52.75;;;;;-146.44;100.00;58906.56;5062312;27;46307;-57
2023/01/26 02:52:14;;;;;;;;;62.50;48.25;;;;;-146.44;100.00;58906.56;5074575;27;45513;-56
2023/01/26 02:57:23;;;;;;;;;65.50;49.75;;;;;-146.44;100.00;58906.56;5074570;27;45482;-58
2023/01/26 02:59:48;;;;;;;;;65.25;53.00;;;;;-146.44;100.00;58906.56;5073790;27;45458;-56
2023/01/26 03:02:14;;;;;;;;;62.50;52.00;;;;;-146.44;100.00;58906.56;5074570;27;45476;-57
2023/01/26 03:04:41;;;;;;;;;64.25;53.00;;;;;-146.44;100.00;58906.56;5074148;27;45594;-57
2023/01/26 03:07:06;;;;;;;;;62.50;50.50;;;;;-146.44;100.00;58906.56;5073605;27;45511;-57
2023/01/26 03:09:32;;;;;;;;;60.00;47.25;;;;;-146.44;100.00;58906.56;5061566;27;45546;-57
2023/01/26 03:11:57;;;;;;;;;57.00;45.75;;;;;-146.44;100.00;58906.56;5072764;27;46825;-56
2023/01/26 03:14:22;;;;;;;;;60.50;46.50;;;;;-146.44;100.00;58906.56;5074374;27;45550;-57
2023/01/26 03:16:48;;;;;;;;;61.75;48.50;;;;;-146.44;100.00;58906.56;5074366;27;45381;-57
2023/01/26 03:27:29;;;;;;;;;60.00;46.50;;;;;-146.44;100.00;58906.56;5060009;28;45527;-56
2023/01/26 03:29:56;;;;;;;;;60.50;46.75;;;;;-146.44;100.00;58906.56;5073863;27;46074;-56
2023/01/26 03:32:22;;;;;;;;;63.50;49.00;;;;;-146.44;100.00;58906.56;5072452;28;45469;-56
2023/01/26 03:34:47;;;;;;;;;61.75;48.00;;;;;-146.44;100.00;58906.56;5074418;27;45541;-57
2023/01/26 03:37:12;;;;;;;;;61.75;47.00;;;;;-146.44;100.00;58906.56;5073892;27;45458;-57
2023/01/26 03:59:07;;;;;;;;;64.75;49.75;;;;;-146.44;100.00;58906.56;5036708;28;45804;-58
2023/01/26 04:09:57;;;;;;;;;57.00;47.00;;;;;-146.44;100.00;58906.56;5072909;27;45567;-58
2023/01/26 04:12:22;;;;;;;;;58.50;46.50;;;;;-146.44;100.00;58906.56;5069026;27;46286;-56
2023/01/26 04:23:00;;;;;;;;;66.50;50.25;;;;;-146.44;100.00;58906.56;5059557;28;45589;-57
2023/01/26 04:25:25;;;;;;;;;62.25;49.75;;;;;-146.44;100.00;58906.56;5073024;27;45547;-57
2023/01/26 04:27:51;;;;;;;;;60.25;47.50;;;;;-146.44;100.00;58906.56;5073352;28;45395;-56
2023/01/26 04:30:17;;;;;;;;;56.00;44.00;;;;;-146.44;100.00;58906.56;5073453;28;45492;-57
2023/01/26 04:32:42;;;;;;;;;60.75;46.75;;;;;-146.44;100.00;58906.56;5072897;28;45673;-56
2023/01/26 04:35:08;;;;;;;;;61.75;48.75;;;;;-146.44;100.00;58906.56;5073185;27;45405;-57
2023/01/26 04:37:34;;;;;;;;;61.00;45.00;;;;;-146.44;100.00;58906.56;5073093;27;45490;-56
2023/01/26 04:39:59;;;;;;;;;65.75;46.00;;;;;-146.44;100.00;58906.56;5073383;27;45507;-56
2023/01/26 04:42:25;;;;;;;;;59.50;47.50;;;;;-146.44;100.00;58906.56;5072216;27;45925;-55
2023/01/26 04:44:51;;;;;;;;;65.00;48.00;;;;;-146.44;100.00;58906.56;5072996;27;45527;-56
2023/01/26 04:47:17;;;;;;;;;62.00;44.75;;;;;-146.44;100.00;58906.56;5073112;27;45476;-56
2023/01/26 04:49:42;;;;;;;;;55.25;45.50;;;;;-146.44;100.00;58906.56;5072926;27;45526;-57
2023/01/26 04:52:07;;;;;;;;;55.25;44.25;;;;;-146.44;100.00;58906.56;5073001;27;46093;-57
2023/01/26 04:54:33;;;;;;;;;57.00;45.25;;;;;-146.44;100.00;58906.56;5072638;27;45494;-56
2023/01/26 04:56:58;;;;;;;;;60.75;45.75;;;;;-146.44;100.00;58906.56;5072686;27;45562;-55
2023/01/26 04:59:23;;;;;;;;;62.25;44.75;;;;;-146.44;100.00;58906.56;5072858;28;45487;-57
2023/01/26 05:01:49;;;;;;;;;60.50;50.75;;;;;-146.44;100.00;58906.56;5072633;28;45452;-57
2023/01/26 05:04:14;;;;;;;;;59.50;47.25;;;;;-146.44;100.00;58906.56;5072372;27;50088;-56
2023/01/26 05:06:40;;;;;;;;;56.75;45.75;;;;;-146.44;100.00;58906.56;5072744;27;45942;-56
2023/01/26 05:09:06;;;;;;;;;59.25;48.75;;;;;-146.44;100.00;58906.56;5073990;27;45426;-57
2023/01/26 05:11:31;;;;;;;;;60.75;49.00;;;;;-146.44;100.00;58906.56;5075363;27;46011;-55
2023/01/26 05:13:57;;;;;;;;;57.75;43.50;;;;;-146.44;100.00;58906.56;5075281;27;46835;-56
2023/01/26 05:16:23;;;;;;;;;54.75;43.50;;;;;-146.44;100.00;58906.56;5076321;27;45524;-57
2023/01/26 05:18:48;;;;;;;;;54.00;43.50;;;;;-146.44;100.00;58906.56;5076061;27;45652;-57
2023/01/26 05:21:14;;;;;;;;;57.25;43.50;;;;;-146.44;100.00;58906.56;5076030;27;46016;-57
2023/01/26 05:23:39;;;;;;;;;57.25;45.25;;;;;-146.44;100.00;58906.56;5075769;27;45552;-56
2023/01/26 05:26:05;;;;;;;;;60.00;45.25;;;;;-146.44;100.00;58906.56;5076027;27;45507;-57
2023/01/26 05:28:32;;;;;;;;;53.25;42.25;;;;;-146.44;100.00;58906.56;5076050;27;45406;-56
2023/01/26 05:30:57;;;;;;;;;58.25;43.75;;;;;-146.44;100.00;58906.56;5075775;27;46444;-56
2023/01/26 05:33:23;;;;;;;;;57.25;43.75;;;;;-146.44;100.00;58906.56;5074527;27;45433;-57
2023/01/26 05:35:49;;;;;;;;;49.25;40.75;;;;;-146.44;100.00;58906.56;5075999;27;45524;-55
2023/01/26 05:38:14;;;;;;;;;57.75;47.50;;;;;-146.44;100.00;58906.56;5075823;27;45585;-57
2023/01/26 05:40:40;;;;;;;;;57.25;44.50;;;;;-146.44;100.00;58906.56;5075670;27;45539;-57
2023/01/26 05:43:07;;;;;;;;;60.75;44.25;;;;;-146.44;100.00;58906.56;5074466;27;45523;-56
2023/01/26 05:45:32;;;;;;;;;48.00;41.00;;;;;-146.44;100.00;58906.56;5075820;27;45529;-55
2023/01/26 05:47:58;;;;;;;;;59.25;47.00;;;;;-146.44;100.00;58906.56;5073888;27;45477;-56
2023/01/26 05:50:23;;;;;;;;;55.50;42.00;;;;;-146.44;100.00;58906.56;5075527;27;46055;-57
2023/01/26 05:52:48;;;;;;;;;47.00;38.75;;;;;-146.44;100.00;58906.56;5075132;27;45536;-57
2023/01/26 05:55:14;;;;;;;;;56.75;43.25;;;;;-146.44;100.00;58906.56;5075556;27;45457;-57
2023/01/26 05:57:40;;;;;;;;;57.25;46.00;;;;;-146.44;100.00;58906.56;5075615;27;45598;-55
2023/01/26 06:00:06;;;;;;;;;46.75;40.50;;;;;-146.44;100.00;58906.56;5074957;27;45501;-57
2023/01/26 06:02:32;;;;;;;;;53.25;42.50;;;;;-146.44;100.00;58906.56;5074081;27;45465;-54
2023/01/26 06:04:57;;;;;;;;;54.25;41.75;;;;;-146.44;100.00;58906.56;5075295;27;45462;-57
2023/01/26 06:07:25;;;;;;;;;56.25;43.00;;;;;-146.44;100.00;58906.56;5075244;27;45476;-56
2023/01/26 06:09:50;;;;;;;;;52.25;43.75;;;;;-146.44;100.00;58906.56;5075306;27;46251;-57
2023/01/26 06:12:18;;;;;;;;;57.75;43.75;;;;;-146.44;100.00;58906.56;5073359;27;45573;-57
2023/01/26 06:14:44;;;;;;;;;50.75;40.25;;;;;-146.44;100.00;58906.56;5073186;27;45510;-57
2023/01/26 06:17:10;;;;;;;;;50.50;40.00;;;;;-146.44;100.00;58906.56;5074453;27;45624;-57
2023/01/26 06:19:36;;;;;;;;;46.50;38.00;;;;;-146.44;100.00;58906.56;5074905;27;46203;-57
2023/01/26 06:22:09;;;;;;;;;50.50;41.00;;;;;-146.44;100.00;58906.56;5073929;27;45499;-55
2023/01/26 06:24:34;;;;;;;;;56.25;45.25;;;;;-146.44;100.00;58906.56;5075183;27;45565;-56
2023/01/26 06:27:01;;;;;;;;;40.50;34.25;;;;;-146.44;100.00;58906.56;5074705;27;45524;-56
2023/01/26 06:29:26;;;;;;;;;56.00;43.25;;;;;-146.44;100.00;58906.56;5074582;27;45596;-55
2023/01/26 06:31:52;;;;;;;;;43.75;40.50;;;;;-146.44;100.00;58906.56;5074896;27;45541;-59
2023/01/26 06:34:17;;;;;;;;;52.25;40.75;;;;;-146.44;100.00;58906.56;5074861;27;45511;-57
2023/01/26 06:36:44;;;;;;;;;47.50;40.00;;;;;-146.44;100.00;58906.56;5075178;27;45425;-57
2023/01/26 06:39:11;;;;;;;;;55.25;40.50;;;;;-146.44;100.00;58906.56;5074928;27;45448;-56
2023/01/26 06:41:37;;;;;;;;;47.75;40.75;;;;;-146.44;100.00;58906.56;5073508;27;45518;-55
2023/01/26 06:44:03;;;;;;;;;47.00;39.75;;;;;-146.44;100.00;58906.56;5074672;27;45497;-57
2023/01/26 06:46:28;;;;;;;;;47.75;40.50;;;;;-146.44;100.00;58906.56;5075012;27;45710;-56
2023/01/26 06:48:53;;;;;;;;;56.75;42.00;;;;;-146.44;100.00;58906.56;5074697;27;46034;-56
2023/01/26 06:51:19;;;;;;;;;42.00;40.50;;;;;-146.44;100.00;58906.56;5074531;27;45535;-57
2023/01/26 06:53:51;;;;;;;;;35.25;35.25;;;;;-146.44;100.00;58906.56;5074772;27;45930;-55
2023/01/26 06:56:17;;;;;;;;;42.75;38.25;;;;;-146.44;100.00;58906.56;5072433;27;45615;-57
2023/01/26 06:58:42;;;;;;;;;47.25;39.25;;;;;-146.44;100.00;58906.56;5070644;27;45393;-57
2023/01/26 07:01:17;;;;;;;;;47.50;38.50;;;;;-146.44;100.00;58906.56;5065137;27;46714;-57
2023/01/26 07:03:42;;;;;;;;;43.75;39.75;;;;;-146.44;100.00;58906.56;5065690;28;45438;-54
2023/01/26 07:06:10;;;;;;;;;54.00;41.25;;;;;-146.44;100.00;58906.56;5073343;27;45520;-57
2023/01/26 07:08:37;;;;;;;;;49.25;39.50;;;;;-146.44;100.00;58906.56;5074076;27;46110;-57
2023/01/26 07:11:02;;;;;;;;;57.50;44.75;;;;;-146.44;100.00;58906.56;5073638;27;45547;-56
2023/01/26 07:13:27;;;;;;;;;48.25;41.00;;;;;-146.44;100.00;58906.56;5071906;27;45635;-57
2023/01/26 07:16:03;;;;;;;;;52.00;42.75;;;;;-146.44;100.00;58906.56;5072549;27;45556;-57
2023/01/26 07:18:28;;;;;;;;;51.75;42.75;;;;;-146.44;100.00;58906.56;5071757;27;45555;-57
2023/01/26 07:20:59;;;;;;;;;51.00;42.00;;;;;-146.44;100.00;58906.56;5071988;27;45429;-56
2023/01/26 07:23:24;;;;;;;;;48.25;42.00;;;;;-146.44;100.00;58906.56;5074172;27;45458;-56
2023/01/26 07:25:49;;;;;;;;;51.50;42.50;;;;;-146.44;100.00;58906.56;5071694;27;45522;-58
2023/01/26 07:28:15;;;;;;;;;56.00;42.25;;;;;-146.44;100.00;58906.56;5073315;27;54195;-57
2023/01/26 07:30:40;;;;;;;;;48.75;42.50;;;;;-146.44;100.00;58906.56;5074160;27;45664;-56
2023/01/26 07:33:05;;;;;;;;;56.00;41.25;;;;;-146.44;100.00;58906.56;5073390;27;45642;-55
2023/01/26 07:35:31;;;;;;;;;46.00;41.25;;;;;-146.44;100.00;58906.56;5073625;27;46817;-57
2023/01/26 07:37:57;;;;;;;;;53.00;44.75;;;;;-146.44;100.00;58906.56;5073799;27;45464;-57
2023/01/26 07:40:23;;;;;;;;;47.00;41.00;;;;;-146.44;100.00;58906.56;5072811;27;45465;-56
2023/01/26 07:42:48;;;;;;;;;56.75;45.00;;;;;-146.44;100.00;58906.56;5071565;27;45742;-57
2023/01/26 07:45:16;;;;;;;;;47.25;42.00;;;;;-146.44;100.00;58906.56;5062996;27;45465;-59
2023/01/26 07:47:42;;;;;;;;;46.25;38.25;;;;;-146.44;100.00;58906.56;5059732;27;46009;-60
2023/01/26 07:50:09;;;;;;;;;57.00;47.50;;;;;-146.44;100.00;58906.56;5073450;28;45564;-61
2023/01/26 07:52:34;;;;;;;;;58.50;44.75;;;;;-146.44;100.00;58906.56;5071736;27;45558;-60
2023/01/26 07:55:00;;;;;;;;;53.00;43.50;;;;;-146.44;100.00;58906.56;5073236;27;45548;-60
2023/01/26 07:57:25;;;;;;;;;59.50;44.75;;;;;-146.44;100.00;58906.56;5072091;27;51177;-60
2023/01/26 07:59:50;;;;;;;;;57.75;48.50;;;;;-146.44;100.00;58906.56;5072040;27;45591;-60
2023/01/26 08:02:16;;;;;;;;;55.25;46.00;;;;;-146.44;100.00;58906.56;5073042;27;45485;-61
2023/01/26 08:04:41;;;;;;;;;50.50;44.50;;;;;-146.44;100.00;58906.56;5073031;27;45592;-60
2023/01/26 08:07:06;;;;;;;;;58.50;45.00;;;;;-146.44;100.00;58906.56;5072748;27;45450;-60
2023/01/26 08:09:32;;;;;;;;;53.25;45.50;;;;;-146.44;100.00;58906.56;5072833;27;45726;-59
2023/01/26 08:11:58;;;;;;;;;44.25;41.00;;;;;-146.44;100.00;58906.56;5071593;27;49018;-59
2023/01/26 08:14:23;;;;;;;;;54.75;44.75;;;;;-146.44;100.00;58906.56;5071639;28;45508;-60
2023/01/26 08:16:49;;;;;;;;;56.75;42.75;;;;;-146.44;100.00;58906.56;5072490;27;45567;-59
2023/01/26 08:19:14;;;;;;;;;65.50;50.75;;;;;-146.44;100.00;58906.56;5072851;27;45540;-59
2023/01/26 08:21:40;;;;;;;;;53.25;46.25;;;;;-146.44;100.00;58906.56;5072969;27;45354;-58
2023/01/26 08:24:05;;;;;;;;;55.75;43.75;;;;;-146.44;100.00;58906.56;5072624;27;45429;-59
2023/01/26 08:26:31;;;;;;;;;59.75;49.00;;;;;-146.44;100.00;58906.56;5072318;27;46001;-59
2023/01/26 08:28:56;;;;;;;;;70.00;52.25;;;;;-146.44;100.00;58906.56;5072313;27;45496;-59
2023/01/26 08:31:23;;;;;;;;;65.50;52.25;;;;;-146.44;100.00;58906.56;5072948;27;45426;-60
2023/01/26 08:33:50;;;;;;;;;59.50;48.50;;;;;-146.44;100.00;58906.56;5072725;27;45580;-60
2023/01/26 08:36:17;;;;;;;;;65.75;51.75;;;;;-146.44;100.00;58906.56;5071537;27;46158;-58
2023/01/26 08:38:43;;;;;;;;;71.25;51.25;;;;;-146.44;100.00;58906.56;5059952;27;45541;-54
2023/01/26 08:41:09;;;;;;;;;66.75;53.50;;;;;-146.44;100.00;58906.56;5066913;27;45612;-59
2023/01/26 08:43:35;;;;;;;;;65.00;51.25;;;;;-146.44;100.00;58906.56;5071585;27;45429;-59
2023/01/26 08:46:01;;;;;;;;;63.75;49.50;;;;;-146.44;100.00;58906.56;5075834;27;47389;-59
2023/01/26 08:48:27;;;;;;;;;60.50;50.00;;;;;-146.44;100.00;58906.56;5075935;27;45501;-59
2023/01/26 08:50:58;;;;;;;;;66.50;53.50;;;;;-146.44;100.00;58906.56;5071075;27;46123;-59
2023/01/26 08:53:24;;;;;;;;;70.75;53.00;;;;;-146.44;100.00;58906.56;5072731;27;45582;-64
2023/01/26 08:55:49;;;;;;;;;62.25;51.00;;;;;-146.44;100.00;58906.56;5068743;27;45409;-61
2023/01/26 08:58:15;;;;;;;;;62.00;48.75;;;;;-146.44;100.00;58906.56;5076129;27;45591;-61
2023/01/26 09:00:40;;;;;;;;;66.50;53.25;;;;;-146.44;100.00;58906.56;5075388;27;46140;-63
2023/01/26 09:03:06;;;;;;;;;62.25;48.25;;;;;-146.44;100.00;58906.56;5069701;27;45563;-63
2023/01/26 09:05:35;;;;;;;;;65.75;51.50;;;;;-146.44;100.00;58906.56;5069443;27;45584;-62
2023/01/26 09:08:00;;;;;;;;;55.75;45.00;;;;;-146.44;100.00;58906.56;5063441;27;45683;-61
2023/01/26 09:10:26;;;;;;;;;66.75;52.50;;;;;-146.44;100.00;58906.56;5074209;27;45533;-63
2023/01/26 09:12:51;;;;;;;;;67.00;53.00;;;;;-146.44;100.00;58906.56;5075100;27;45610;-61
2023/01/26 09:15:18;;;;;;;;;64.50;51.00;;;;;-146.44;100.00;58906.56;5074881;27;46522;-64
2023/01/26 09:17:43;;;;;;;;;60.75;49.50;;;;;-146.44;100.00;58906.56;5063993;28;45539;-63
2023/01/26 09:20:10;;;;;;;;;67.50;50.25;;;;;-146.44;100.00;58906.56;5065049;27;45461;-62
2023/01/26 09:22:35;;;;;;;;;64.50;50.50;;;;;-146.44;100.00;58906.56;5058024;28;46453;-64
2023/01/26 09:25:01;;;;;;;;;69.75;50.50;;;;;-146.44;100.00;58906.56;5064431;28;45534;-60
2023/01/26 09:27:26;;;;;;;;;61.75;49.50;;;;;-146.44;100.00;58906.56;5073699;27;45509;-63
2023/01/26 09:29:52;;;;;;;;;67.50;50.75;;;;;-146.44;100.00;58906.56;5076122;27;45556;-62
2023/01/26 09:32:18;;;;;;;;;63.25;50.25;;;;;-146.44;100.00;58906.56;5074563;27;45630;-59
2023/01/26 09:34:43;;;;;;;;;68.25;51.00;;;;;-146.44;100.00;58906.56;5069342;27;47410;-60
2023/01/26 09:37:09;;;;;;;;;61.00;49.75;;;;;-146.44;100.00;58906.56;5067805;27;45484;-61
2023/01/26 09:39:34;;;;;;;;;70.25;54.50;;;;;-146.44;100.00;58906.56;5068981;27;45584;-61
2023/01/26 09:42:18;;;;;;;;;72.00;56.00;;;;;-146.44;100.00;58906.56;5075681;27;45562;-62
2023/01/26 09:45:10;;;;;;;;;57.75;48.25;;;;;-146.44;100.00;58906.56;5074193;27;46627;-63
2023/01/26 09:47:45;;;;;;;;;52.00;43.50;;;;;-146.44;100.00;58906.56;5069374;28;45566;-62
2023/01/26 09:50:17;;;;;;;;;59.75;48.75;;;;;-146.44;100.00;58906.56;5071372;27;45513;-63
2023/01/26 09:52:46;;;;;;;;;47.00;40.50;;;;;-146.44;100.00;58906.56;5075267;27;45445;-61
2023/01/26 09:55:18;;;;;;;;;45.75;39.75;;;;;-146.44;100.00;58906.56;5074171;27;45523;-59
2023/01/26 09:57:49;;;;;;;;;51.00;43.25;;;;;-146.44;100.00;58906.56;5060992;28;45642;-60
2023/01/26 10:00:23;;;;;;;;;41.25;38.00;;;;;-146.44;100.00;58906.56;5064887;27;45544;-61
2023/01/26 10:03:04;;;;;;;;;50.00;42.00;;;;;-146.44;100.00;58906.56;5072019;27;45613;-62
2023/01/26 10:05:44;;;;;;;;;58.50;45.50;;;;;-146.44;100.00;58906.56;5074046;27;45891;-60
2023/01/26 10:08:12;;;;;;;;;56.50;45.25;;;;;-146.44;100.00;58906.56;5065707;27;45445;-60
2023/01/26 10:11:01;;;;;;;;;59.75;48.50;;;;;-146.44;100.00;58906.56;5074162;27;45418;-62
2023/01/26 10:13:28;;;;;;;;;59.75;50.75;;;;;-146.44;100.00;58906.56;5073568;27;45524;-62
2023/01/26 10:15:58;;;;;;;;;58.50;46.25;;;;;-146.44;100.00;58906.56;5074066;27;45623;-64
2023/01/26 10:18:36;;;;;;;;;58.50;44.75;;;;;-146.44;100.00;58906.56;5061948;27;45517;-63
2023/01/26 10:21:06;;;;;;;;;57.75;45.75;;;;;-146.44;100.00;58906.56;5061225;27;45513;-64
2023/01/26 10:23:33;;;;;;;;;55.25;45.25;;;;;-146.44;100.00;58906.56;5074774;27;45543;-60
2023/01/26 10:26:22;;;;;;;;;58.75;48.75;;;;;-146.44;100.00;58906.56;5074583;27;46095;-59
2023/01/26 10:28:51;;;;;;;;;53.50;44.50;;;;;-146.44;100.00;58906.56;5071628;27;45496;-59
2023/01/26 10:31:21;;;;;;;;;58.00;46.75;;;;;-146.44;100.00;58906.56;5074242;27;45528;-59
2023/01/26 10:33:58;;;;;;;;;59.25;46.25;;;;;-146.44;100.00;58906.56;5073648;27;45519;-59
2023/01/26 10:36:24;;;;;;;;;58.75;46.50;;;;;-146.44;100.00;58906.56;5072825;27;45518;-60
2023/01/26 10:38:51;;;;;;;;;57.25;47.25;;;;;-146.44;100.00;58906.56;5074683;27;45512;-60
2023/01/26 10:41:25;;;;;;;;;60.25;49.00;;;;;-146.44;100.00;58906.56;5074649;27;45511;-60
2023/01/26 10:43:52;;;;;;;;;56.00;46.75;;;;;-146.44;100.00;58906.56;5074838;27;45545;-57
2023/01/26 10:46:43;;;;;;;;;57.25;46.50;;;;;-146.44;100.00;58906.56;5073427;27;45462;-58
2023/01/26 10:49:08;;;;;;;;;58.50;45.25;;;;;-146.44;100.00;58906.56;5068478;27;45475;-59
2023/01/26 10:51:38;;;;;;;;;56.25;45.75;;;;;-146.44;100.00;58906.56;5073656;27;45484;-59
2023/01/26 10:54:20;;;;;;;;;63.25;49.75;;;;;-146.44;100.00;58906.56;5073277;27;45489;-60
2023/01/26 10:56:57;;;;;;;;;64.00;53.25;;;;;-146.44;100.00;58906.56;5071477;27;45423;-61
2023/01/26 10:59:38;;;;;;;;;53.25;44.75;;;;;-146.44;100.00;58906.56;5074462;27;45489;-61
2023/01/26 11:02:18;;;;;;;;;51.75;44.75;;;;;-146.44;100.00;58906.56;5071480;27;45458;-61
2023/01/26 11:05:02;;;;;;;;;57.25;44.50;;;;;-146.44;100.00;58906.56;5072381;27;45635;-54
2023/01/26 11:07:31;;;;;;;;;57.75;45.50;;;;;-146.44;100.00;58906.56;5068822;27;45569;-49
2023/01/26 11:10:14;;;;;;;;;50.25;41.75;;;;;-146.44;100.00;58906.56;5069703;27;45520;-62
2023/01/26 11:12:40;;;;;;;;;47.50;41.50;;;;;-146.44;100.00;58906.56;5066148;27;45518;-62
2023/01/26 11:15:18;;;;;;;;;51.50;42.50;;;;;-146.44;100.00;58906.56;5068036;27;45943;-63
2023/01/26 11:17:56;;;;;;;;;52.25;43.25;;;;;-146.44;100.00;58906.56;5073896;27;46103;-64
2023/01/26 11:20:42;;;;;;;;;56.75;45.75;;;;;-146.44;100.00;58906.56;5073855;27;45503;-61
2023/01/26 11:23:29;;;;;;;;;51.25;41.25;;;;;-146.44;100.00;58906.56;5073807;27;45828;-60
2023/01/26 11:26:10;;;;;;;;;56.25;45.00;;;;;-146.44;100.00;58906.56;5073769;28;45513;-62
2023/01/26 11:28:51;;;;;;;;;51.50;42.75;;;;;-146.44;100.00;58906.56;5072327;27;45547;-60
2023/01/26 11:31:31;;;;;;;;;57.50;46.50;;;;;-146.44;100.00;58906.56;5071285;27;45610;-57
2023/01/26 11:34:15;;;;;;;;;48.25;42.00;;;;;-146.44;100.00;58906.56;5064674;27;45773;-58
2023/01/26 11:36:53;;;;;;;;;48.25;41.00;;;;;-146.44;100.00;58906.56;5063390;28;45660;-63
2023/01/26 11:39:25;;;;;;;;;55.75;44.25;;;;;-146.44;100.00;58906.56;5070991;27;45580;-61
2023/01/26 11:41:59;;;;;;;;;50.75;41.75;;;;;-146.44;100.00;58906.56;5072752;27;46291;-57
2023/01/26 11:45:01;;;;;;;;;52.50;43.25;;;;;-146.44;100.00;58906.56;5073293;27;45578;-56
2023/01/26 11:47:42;;;;;;;;;51.25;43.50;;;;;-146.44;100.00;58906.56;5061227;27;45600;-59
2023/01/26 11:50:50;;;;;;;;;45.75;40.50;;;;;-146.44;100.00;58906.56;5073353;27;45470;-61
2023/01/26 11:53:31;;;;;;;;;51.00;44.75;;;;;-146.44;100.00;58906.56;5047493;28;45504;-54